createdAt,value
2022-07-30T00:00:30.794Z,16.97
2022-07-30T00:02:59.714Z,17.01
2022-07-30T00:05:28.799Z,17.04
2022-07-30T00:07:58.682Z,17.16
2022-07-30T00:10:28.381Z,17.24
2022-07-30T00:12:57.824Z,17.24
2022-07-30T00:15:26.615Z,17.30
2022-07-30T00:17:55.457Z,17.34
2022-07-30T00:20:27.891Z,17.35
2022-07-30T00:22:57.301Z,17.38
2022-07-30T00:25:26.170Z,17.48
2022-07-30T00:27:54.945Z,17.65
2022-07-30T00:30:24.310Z,17.81
2022-07-30T00:32:53.219Z,18.04
2022-07-30T00:35:22.289Z,18.21
2022-07-30T00:37:51.333Z,18.21
2022-07-30T00:40:20.317Z,18.42
2022-07-30T00:42:50.034Z,18.79
2022-07-30T00:45:19.533Z,19.28
2022-07-30T00:47:48.398Z,19.48
2022-07-30T00:50:17.519Z,19.66
2022-07-30T00:52:46.542Z,19.92
2022-07-30T00:55:16.605Z,20.02
2022-07-30T00:57:45.794Z,20.07
2022-07-30T01:00:17.806Z,20.06
2022-07-30T01:02:46.752Z,19.87
2022-07-30T01:05:15.803Z,19.65
2022-07-30T01:07:45.256Z,19.55
2022-07-30T01:10:17.864Z,19.57
2022-07-30T01:12:47.448Z,19.49
2022-07-30T01:15:17.356Z,19.33
2022-07-30T01:17:52.877Z,19.13
2022-07-30T01:20:34.203Z,19.09
2022-07-30T01:23:16.410Z,19.23
2022-07-30T01:26:08.278Z,19.32
2022-07-30T01:28:49.700Z,19.30
2022-07-30T01:31:19.868Z,19.45
2022-07-30T01:33:50.675Z,19.68
2022-07-30T01:36:25.276Z,19.98
2022-07-30T01:38:54.843Z,20.22
2022-07-30T01:41:25.649Z,20.34
2022-07-30T01:43:55.561Z,20.33
2022-07-30T01:46:25.909Z,20.44
2022-07-30T01:48:58.603Z,20.41
2022-07-30T01:51:37.475Z,20.37
2022-07-30T01:54:11.758Z,20.29
2022-07-30T01:56:42.416Z,20.33
2022-07-30T01:59:14.561Z,20.57
2022-07-30T02:01:43.824Z,20.90
2022-07-30T02:04:12.702Z,21.13
2022-07-30T02:07:00.536Z,21.34
2022-07-30T02:09:38.679Z,21.38
2022-07-30T02:12:32.082Z,21.30
2022-07-30T02:15:17.894Z,20.88
2022-07-30T02:18:11.395Z,20.74
2022-07-30T02:20:48.734Z,20.79
2022-07-30T02:23:20.125Z,20.78
2022-07-30T02:25:52.357Z,20.71
2022-07-30T02:28:25.674Z,20.79
2022-07-30T02:31:01.759Z,20.69
2022-07-30T02:33:41.211Z,20.57
2022-07-30T02:36:20.854Z,20.52
2022-07-30T02:38:52.211Z,20.74
2022-07-30T02:41:24.757Z,20.99
2022-07-30T02:43:55.469Z,21.20
2022-07-30T02:46:26.359Z,22.26
2022-07-30T02:49:17.620Z,24.09
2022-07-30T02:51:49.045Z,25.47
2022-07-30T02:54:20.774Z,26.72
2022-07-30T02:56:51.333Z,26.49
2022-07-30T02:59:23.804Z,26.42
2022-07-30T03:01:55.598Z,27.97
2022-07-30T03:04:26.540Z,29.33
2022-07-30T03:06:56.980Z,29.39
2022-07-30T03:09:27.053Z,28.90
2022-07-30T03:12:17.158Z,28.03
2022-07-30T03:14:46.011Z,27.25
2022-07-30T03:17:17.913Z,26.32
2022-07-30T03:19:49.323Z,26.27
2022-07-30T03:22:20.473Z,26.82
2022-07-30T03:24:51.322Z,27.15
2022-07-30T03:27:20.641Z,27.34
2022-07-30T03:29:52.389Z,27.21
2022-07-30T03:32:26.205Z,26.86
2022-07-30T03:34:56.546Z,26.25
2022-07-30T03:37:27.634Z,25.55
2022-07-30T03:39:58.679Z,25.02
2022-07-30T03:42:30.297Z,24.73
2022-07-30T03:45:00.109Z,24.58
2022-07-30T03:47:34.835Z,24.62
2022-07-30T03:50:05.652Z,24.71
2022-07-30T03:52:40.903Z,24.75
2022-07-30T03:55:13.960Z,24.43
2022-07-30T03:57:51.803Z,24.26
2022-07-30T04:00:28.132Z,24.25
2022-07-30T04:02:57.511Z,24.29
2022-07-30T04:05:37.582Z,24.49
2022-07-30T04:08:13.616Z,24.64
2022-07-30T04:10:43.923Z,24.66
2022-07-30T04:13:31.291Z,25.14
2022-07-30T04:16:39.642Z,25.28
2022-07-30T04:19:01.893Z,25.05
2022-07-30T04:21:33.009Z,24.61
2022-07-30T04:24:05.757Z,24.49
2022-07-30T04:26:37.889Z,24.45
2022-07-30T04:29:09.447Z,24.63
2022-07-30T04:31:43.690Z,25.06
2022-07-30T04:34:56.031Z,25.48
2022-07-30T04:37:56.911Z,25.51
2022-07-30T04:40:25.833Z,25.64
2022-07-30T04:42:54.640Z,25.57
2022-07-30T04:45:23.563Z,25.36
2022-07-30T04:47:55.281Z,25.01
2022-07-30T04:50:42.512Z,24.63
2022-07-30T04:53:14.527Z,24.28
2022-07-30T04:55:50.158Z,23.87
2022-07-30T04:58:21.706Z,23.54
2022-07-30T05:00:55.490Z,23.37
2022-07-30T05:03:31.026Z,23.15
2022-07-30T05:06:01.521Z,22.96
2022-07-30T05:08:34.215Z,22.75
2022-07-30T05:11:07.150Z,22.55
2022-07-30T05:13:38.250Z,22.45
2022-07-30T05:16:10.935Z,22.39
2022-07-30T05:18:40.015Z,22.28
2022-07-30T05:21:09.042Z,22.10
2022-07-30T05:23:50.453Z,21.95
2022-07-30T05:26:40.518Z,21.64
2022-07-30T05:29:19.673Z,21.44
2022-07-30T05:31:55.706Z,21.26
2022-07-30T05:34:32.165Z,21.11
2022-07-30T05:37:02.206Z,21.21
2022-07-30T05:39:31.564Z,21.28
2022-07-30T05:42:27.304Z,21.38
2022-07-30T05:45:00.814Z,21.52
2022-07-30T05:47:29.645Z,21.60
2022-07-30T05:50:04.534Z,21.54
2022-07-30T05:52:34.775Z,21.38
2022-07-30T05:55:15.214Z,21.21
2022-07-30T05:58:06.907Z,21.18
2022-07-30T06:00:36.414Z,21.15
2022-07-30T06:03:05.319Z,21.20
2022-07-30T06:05:58.277Z,21.36
2022-07-30T06:08:27.106Z,21.68
2022-07-30T06:10:55.940Z,22.26
2022-07-30T06:13:25.231Z,22.71
2022-07-30T06:15:54.930Z,22.94
2022-07-30T06:18:23.728Z,23.05
2022-07-30T06:20:54.871Z,23.18
2022-07-30T06:23:29.482Z,23.35
2022-07-30T06:26:30.271Z,23.60
2022-07-30T06:28:59.123Z,23.70
2022-07-30T06:31:31.967Z,23.65
2022-07-30T06:34:01.884Z,23.57
2022-07-30T06:36:37.354Z,23.42
2022-07-30T06:39:56.181Z,23.21
2022-07-30T06:42:27.289Z,23.02
2022-07-30T06:45:28.224Z,22.94
2022-07-30T06:48:19.499Z,22.97
2022-07-30T06:50:48.344Z,23.23
2022-07-30T06:53:17.364Z,23.60
2022-07-30T06:56:21.025Z,24.25
2022-07-30T06:58:54.765Z,24.90
2022-07-30T07:01:30.518Z,25.55
2022-07-30T07:04:00.230Z,26.01
2022-07-30T07:06:29.524Z,26.15
2022-07-30T07:08:58.727Z,26.31
2022-07-30T07:11:36.131Z,26.53
2022-07-30T07:14:10.228Z,27.58
2022-07-30T07:16:39.064Z,28.76
2022-07-30T07:20:00.841Z,30.24
2022-07-30T07:22:15.750Z,32.22
2022-07-30T07:24:46.301Z,31.68
2022-07-30T07:27:24.369Z,30.13
2022-07-30T07:30:01.795Z,29.20
2022-07-30T07:32:37.213Z,30.94
2022-07-30T07:35:07.107Z,32.57
2022-07-30T07:40:09.980Z,34.19
2022-07-30T07:42:43.129Z,34.22
2022-07-30T07:45:12.413Z,33.28
2022-07-30T07:47:53.129Z,32.01
2022-07-30T07:50:42.625Z,31.50
2022-07-30T07:53:19.243Z,30.63
2022-07-30T07:55:48.576Z,29.75
2022-07-30T07:58:25.636Z,29.14
2022-07-30T08:01:00.052Z,29.05
2022-07-30T08:03:49.418Z,28.75
2022-07-30T08:06:46.791Z,28.48
2022-07-30T08:09:47.667Z,28.36
2022-07-30T08:12:37.416Z,28.40
2022-07-30T08:15:25.747Z,28.39
2022-07-30T08:18:17.247Z,28.00
2022-07-30T08:21:16.081Z,27.71
2022-07-30T08:23:44.858Z,27.49
2022-07-30T08:26:15.785Z,27.39
2022-07-30T08:28:46.173Z,27.72
2022-07-30T08:31:15.182Z,27.87
2022-07-30T08:33:44.204Z,27.64
2022-07-30T08:36:13.204Z,27.59
2022-07-30T08:38:42.199Z,27.56
2022-07-30T08:41:12.468Z,27.36
2022-07-30T08:43:42.087Z,27.04
2022-07-30T08:46:16.017Z,26.70
2022-07-30T08:49:00.602Z,26.58
2022-07-30T08:51:36.995Z,26.81
2022-07-30T08:54:12.128Z,26.98
2022-07-30T08:56:42.963Z,26.73
2022-07-30T08:59:11.962Z,26.42
2022-07-30T09:01:41.119Z,26.10
2022-07-30T09:04:10.139Z,25.90
2022-07-30T09:06:41.446Z,25.86
2022-07-30T09:09:12.196Z,25.88
2022-07-30T09:11:42.907Z,26.06
2022-07-30T09:14:14.155Z,26.05
2022-07-30T09:16:45.195Z,26.08
2022-07-30T09:19:16.764Z,26.04
2022-07-30T09:22:01.341Z,26.00
2022-07-30T09:24:53.141Z,26.07
2022-07-30T09:27:51.476Z,25.66
2022-07-30T09:30:57.038Z,25.53
2022-07-30T09:33:47.423Z,25.75
2022-07-30T09:36:34.743Z,25.63
2022-07-30T09:39:39.571Z,25.29
2022-07-30T09:42:26.382Z,24.84
2022-07-30T09:45:17.865Z,24.44
2022-07-30T09:47:49.989Z,24.37
2022-07-30T09:50:30.117Z,24.38
2022-07-30T09:53:11.984Z,24.39
2022-07-30T09:55:45.319Z,24.30
2022-07-30T09:58:26.676Z,24.09
2022-07-30T10:01:02.103Z,24.03
2022-07-30T10:03:51.190Z,23.92
2022-07-30T10:07:00.876Z,23.79
2022-07-30T10:09:47.091Z,23.73
2022-07-30T10:12:18.021Z,23.75
2022-07-30T10:14:53.776Z,23.56
2022-07-30T10:17:23.573Z,23.46
2022-07-30T10:20:28.441Z,23.28
2022-07-30T10:23:20.307Z,23.05
2022-07-30T10:26:19.131Z,22.85
2022-07-30T10:29:06.394Z,22.69
2022-07-30T10:31:48.720Z,22.60
2022-07-30T10:34:23.695Z,22.42
2022-07-30T10:37:00.800Z,22.15
2022-07-30T10:39:53.203Z,21.84
2022-07-30T10:42:28.318Z,21.65
2022-07-30T10:45:17.458Z,21.47
2022-07-30T10:47:51.636Z,21.30
2022-07-30T10:50:31.412Z,21.40
2022-07-30T10:53:02.495Z,21.44
2022-07-30T10:55:38.641Z,21.53
2022-07-30T10:58:11.307Z,21.55
2022-07-30T11:00:55.110Z,21.56
2022-07-30T11:03:40.348Z,21.52
2022-07-30T11:06:16.748Z,21.58
2022-07-30T11:08:57.211Z,21.69
2022-07-30T11:12:02.329Z,21.63
2022-07-30T11:14:20.541Z,21.47
2022-07-30T11:16:52.469Z,21.41
2022-07-30T11:19:53.391Z,21.50
2022-07-30T11:22:33.099Z,21.56
2022-07-30T11:25:05.455Z,21.53
2022-07-30T11:27:48.443Z,21.47
2022-07-30T11:30:18.107Z,21.49
2022-07-30T11:32:58.138Z,21.43
2022-07-30T11:35:34.568Z,21.34
2022-07-30T11:38:04.306Z,21.24
2022-07-30T11:40:55.308Z,21.05
2022-07-30T11:43:34.988Z,20.90
2022-07-30T11:46:10.137Z,20.80
2022-07-30T11:48:42.477Z,20.70
2022-07-30T11:51:11.500Z,20.60
2022-07-30T11:53:40.315Z,20.51
2022-07-30T11:56:13.966Z,20.38
2022-07-30T11:58:45.353Z,20.26
2022-07-30T12:01:19.106Z,20.19
2022-07-30T12:03:48.316Z,20.06
2022-07-30T12:06:18.738Z,20.01
2022-07-30T12:08:51.201Z,19.88
2022-07-30T12:11:23.821Z,19.68
2022-07-30T12:14:02.633Z,19.39
2022-07-30T12:16:33.195Z,19.30
2022-07-30T12:19:04.274Z,19.21
2022-07-30T12:21:34.083Z,19.03
2022-07-30T12:24:08.090Z,19.12
2022-07-30T12:26:37.267Z,19.13
2022-07-30T12:29:13.723Z,19.09
2022-07-30T12:31:43.192Z,19.15
2022-07-30T12:34:25.009Z,19.11
2022-07-30T12:36:53.982Z,19.21
2022-07-30T12:39:25.154Z,19.26
2022-07-30T12:41:59.073Z,19.31
2022-07-30T12:44:37.119Z,19.34
2022-07-30T12:47:08.217Z,19.38
2022-07-30T12:49:48.803Z,19.37
2022-07-30T12:52:38.341Z,19.27
2022-07-30T12:55:10.486Z,19.29
2022-07-30T12:58:08.758Z,19.24
2022-07-30T13:00:53.307Z,19.19
2022-07-30T13:03:25.582Z,19.16
2022-07-30T13:05:56.597Z,19.17
2022-07-30T13:08:54.729Z,19.11
2022-07-30T13:11:28.746Z,18.92
2022-07-30T13:13:57.561Z,18.67
2022-07-30T13:16:26.395Z,18.50
2022-07-30T13:18:55.238Z,18.35
2022-07-30T13:21:24.465Z,18.26
2022-07-30T13:23:53.257Z,18.21
2022-07-30T13:26:22.133Z,18.12
2022-07-30T13:28:50.926Z,18.10
2022-07-30T13:31:19.849Z,18.06
2022-07-30T13:33:48.919Z,18.02
2022-07-30T13:36:18.657Z,17.97
2022-07-30T13:38:52.198Z,17.99
2022-07-30T13:41:21.727Z,17.98
2022-07-30T13:43:50.629Z,18.01
2022-07-30T13:46:19.458Z,18.00
2022-07-30T13:48:48.395Z,18.03
2022-07-30T13:51:17.290Z,18.06
2022-07-30T13:53:46.282Z,18.07
2022-07-30T13:56:15.502Z,18.14
2022-07-30T13:58:44.747Z,18.11
2022-07-30T14:01:17.869Z,18.00
2022-07-30T14:03:50.655Z,17.95
2022-07-30T14:06:21.719Z,17.90
2022-07-30T14:08:50.597Z,17.82
2022-07-30T14:11:19.484Z,17.79
2022-07-30T14:13:48.701Z,17.77
2022-07-30T14:16:43.773Z,17.76
2022-07-30T14:19:08.401Z,17.71
2022-07-30T14:21:55.808Z,17.72
2022-07-30T14:24:24.621Z,17.65
2022-07-30T14:26:57.981Z,17.66
2022-07-30T14:29:30.311Z,17.65
2022-07-30T14:31:59.116Z,17.65
2022-07-30T14:34:28.024Z,17.62
2022-07-30T14:36:57.362Z,17.60
2022-07-30T14:39:26.565Z,17.63
2022-07-30T14:41:56.611Z,17.62
2022-07-30T14:44:25.486Z,17.61
2022-07-30T14:46:54.417Z,17.56
2022-07-30T14:49:24.082Z,17.56
2022-07-30T14:51:53.414Z,17.56
2022-07-30T14:54:23.244Z,17.53
2022-07-30T14:56:57.719Z,17.53
2022-07-30T14:59:28.720Z,17.48
2022-07-30T15:01:58.415Z,17.48
2022-07-30T15:04:27.485Z,17.38
2022-07-30T15:06:56.297Z,17.50
2022-07-30T15:09:25.233Z,17.52
2022-07-30T15:12:09.383Z,17.47
2022-07-30T15:14:40.316Z,17.48
2022-07-30T15:17:09.897Z,17.46
2022-07-30T15:19:49.197Z,17.50
2022-07-30T15:22:20.929Z,17.45
2022-07-30T15:24:49.952Z,17.45
2022-07-30T15:27:19.300Z,17.43
2022-07-30T15:29:48.295Z,17.39
2022-07-30T15:32:17.962Z,17.42
2022-07-30T15:34:47.352Z,17.43
2022-07-30T15:37:16.290Z,17.45
2022-07-30T15:39:45.115Z,17.46
2022-07-30T15:42:15.049Z,17.45
2022-07-30T15:44:48.612Z,17.46
2022-07-30T15:47:18.111Z,17.46
2022-07-30T15:49:47.164Z,17.46
2022-07-30T15:52:16.290Z,17.42
2022-07-30T15:54:45.192Z,17.43
2022-07-30T15:57:14.150Z,17.44
2022-07-30T15:59:42.962Z,17.39
2022-07-30T16:02:13.153Z,17.37
2022-07-30T16:04:42.261Z,17.36
2022-07-30T16:07:17.048Z,17.35
2022-07-30T16:09:45.857Z,17.34
2022-07-30T16:12:14.607Z,17.33
2022-07-30T16:14:43.776Z,17.38
2022-07-30T16:17:14.413Z,17.42
2022-07-30T16:19:44.975Z,17.44
2022-07-30T16:22:15.778Z,17.45
2022-07-30T16:24:53.375Z,17.46
2022-07-30T16:27:22.310Z,17.45
2022-07-30T16:29:51.055Z,17.47
2022-07-30T16:32:20.042Z,17.45
2022-07-30T16:34:48.923Z,17.37
2022-07-30T16:37:17.938Z,17.29
2022-07-30T16:39:46.740Z,17.32
2022-07-30T16:42:15.573Z,17.32
2022-07-30T16:44:44.352Z,17.31
2022-07-30T16:47:14.035Z,17.29
2022-07-30T16:49:42.998Z,17.28
2022-07-30T16:52:11.869Z,17.32
2022-07-30T16:54:40.830Z,17.27
2022-07-30T16:57:10.507Z,17.31
2022-07-30T16:59:43.551Z,17.32
2022-07-30T17:02:13.048Z,17.27
2022-07-30T17:04:42.238Z,17.28
2022-07-30T17:07:11.160Z,17.27
2022-07-30T17:09:40.043Z,17.18
2022-07-30T17:12:09.493Z,17.24
2022-07-30T17:14:42.445Z,17.23
2022-07-30T17:17:14.492Z,17.25
2022-07-30T17:19:44.062Z,17.22
2022-07-30T17:22:13.076Z,17.22
2022-07-30T17:24:42.187Z,17.23
2022-07-30T17:27:11.234Z,17.20
2022-07-30T17:29:49.890Z,17.19
2022-07-30T17:32:20.746Z,17.19
2022-07-30T17:34:50.256Z,17.19
2022-07-30T17:37:19.415Z,17.13
2022-07-30T17:40:26.709Z,17.17
2022-07-30T17:42:40.438Z,17.15
2022-07-30T17:45:09.734Z,17.10
2022-07-30T17:47:39.112Z,17.06
2022-07-30T17:50:08.902Z,17.08
2022-07-30T17:52:38.527Z,17.09
2022-07-30T17:55:11.665Z,17.05
2022-07-30T17:57:40.841Z,17.04
2022-07-30T18:00:11.309Z,16.99
2022-07-30T18:02:40.181Z,16.95
2022-07-30T18:05:11.148Z,16.92
2022-07-30T18:07:39.967Z,16.89
2022-07-30T18:10:09.598Z,16.76
2022-07-30T18:12:49.208Z,16.75
2022-07-30T18:15:18.987Z,16.73
2022-07-30T18:17:48.079Z,16.67
2022-07-30T18:20:16.979Z,16.69
2022-07-30T18:22:46.116Z,16.68
2022-07-30T18:25:20.530Z,16.67
2022-07-30T18:27:52.890Z,16.67
2022-07-30T18:30:21.807Z,16.67
2022-07-30T18:32:51.438Z,16.63
2022-07-30T18:35:20.604Z,16.63
2022-07-30T18:37:49.596Z,16.64
2022-07-30T18:40:24.153Z,16.63
2022-07-30T18:42:53.277Z,16.60
2022-07-30T18:45:23.305Z,16.58
2022-07-30T18:47:52.252Z,16.56
2022-07-30T18:50:21.063Z,16.58
2022-07-30T18:52:50.056Z,16.57
2022-07-30T18:55:21.384Z,16.56
2022-07-30T18:57:52.043Z,16.54
2022-07-30T19:00:31.078Z,16.54
2022-07-30T19:03:05.025Z,16.55
2022-07-30T19:05:33.889Z,16.55
2022-07-30T19:08:02.823Z,16.52
2022-07-30T19:10:31.949Z,16.51
2022-07-30T19:13:00.750Z,16.55
2022-07-30T19:15:30.201Z,16.55
2022-07-30T19:17:59.890Z,16.55
2022-07-30T19:20:29.009Z,16.55
2022-07-30T19:23:05.463Z,16.51
2022-07-30T19:25:36.087Z,16.50
2022-07-30T19:28:05.957Z,16.51
2022-07-30T19:30:35.466Z,16.52
2022-07-30T19:33:14.184Z,16.50
2022-07-30T19:35:44.805Z,16.49
2022-07-30T19:38:21.986Z,16.52
2022-07-30T19:40:53.168Z,16.53
2022-07-30T19:43:24.032Z,16.52
2022-07-30T19:45:53.610Z,16.53
2022-07-30T19:48:29.524Z,16.54
2022-07-30T19:51:01.376Z,16.47
2022-07-30T19:56:20.410Z,16.51
2022-07-30T19:58:52.339Z,16.49
2022-07-30T20:01:22.991Z,16.49
2022-07-30T20:03:52.674Z,16.48
2022-07-30T20:06:22.810Z,16.48
2022-07-30T20:08:52.478Z,16.46
2022-07-30T20:11:35.849Z,16.47
2022-07-30T20:14:05.867Z,16.45
2022-07-30T20:16:36.109Z,16.44
2022-07-30T20:19:05.654Z,16.49
2022-07-30T20:22:06.875Z,16.47
2022-07-30T20:24:23.937Z,16.48
2022-07-30T20:26:54.386Z,16.47
2022-07-30T20:29:24.002Z,16.51
2022-07-30T20:31:54.000Z,16.41
2022-07-30T20:34:25.763Z,16.51
2022-07-30T20:36:56.464Z,16.51
2022-07-30T20:39:26.441Z,16.52
2022-07-30T20:42:12.547Z,16.56
2022-07-30T20:44:43.907Z,16.54
2022-07-30T20:47:37.401Z,16.53
2022-07-30T20:52:58.194Z,16.58
2022-07-30T20:55:27.451Z,16.57
2022-07-30T20:58:06.961Z,16.56
2022-07-30T21:00:49.422Z,16.54
2022-07-30T21:03:21.536Z,16.53
2022-07-30T21:05:52.330Z,16.43
2022-07-30T21:08:25.194Z,16.53
2022-07-30T21:10:55.578Z,16.56
2022-07-30T21:13:26.318Z,16.58
2022-07-30T21:16:02.053Z,16.54
2022-07-30T21:18:32.851Z,16.57
2022-07-30T21:21:04.935Z,16.58
2022-07-30T21:23:34.845Z,16.55
2022-07-30T21:26:10.535Z,16.58
2022-07-30T21:28:42.398Z,16.59
2022-07-30T21:31:11.280Z,16.59
2022-07-30T21:33:40.194Z,16.62
2022-07-30T21:36:10.886Z,16.60
2022-07-30T21:38:43.462Z,16.63
2022-07-30T21:41:14.427Z,16.62
2022-07-30T21:43:49.357Z,16.63
2022-07-30T21:46:25.063Z,16.64
2022-07-30T21:48:58.355Z,16.65
2022-07-30T21:51:28.519Z,16.68
2022-07-30T21:53:59.040Z,16.68
2022-07-30T21:56:27.852Z,16.70
2022-07-30T21:58:56.747Z,16.72
2022-07-30T22:01:26.684Z,16.70
2022-07-30T22:04:01.653Z,16.70
2022-07-30T22:06:39.916Z,16.71
2022-07-30T22:09:19.264Z,16.73
2022-07-30T22:12:06.297Z,16.73
2022-07-30T22:14:35.729Z,16.78
2022-07-30T22:17:04.682Z,16.79
2022-07-30T22:19:34.146Z,16.79
2022-07-30T22:22:25.879Z,16.82
2022-07-30T22:24:51.734Z,16.77
2022-07-30T22:27:22.048Z,16.82
2022-07-30T22:29:51.439Z,16.84
2022-07-30T22:32:25.303Z,16.87
2022-07-30T22:34:55.058Z,16.86
2022-07-30T22:37:34.031Z,16.90
2022-07-30T22:40:06.675Z,16.91
2022-07-30T22:42:46.579Z,16.94
2022-07-30T22:45:47.132Z,16.96
2022-07-30T22:48:10.857Z,16.96
2022-07-30T22:50:41.090Z,16.98
2022-07-30T22:54:02.719Z,16.98
2022-07-30T22:55:59.441Z,16.97
2022-07-30T22:58:29.635Z,16.99
2022-07-30T23:00:59.321Z,17.00
2022-07-30T23:03:28.165Z,17.04
2022-07-30T23:05:56.969Z,17.04
2022-07-30T23:08:30.418Z,17.05
2022-07-30T23:11:02.757Z,17.04
2022-07-30T23:12:16.500Z,16.50
2022-07-30T23:12:19.444Z,16.55
2022-07-30T23:13:31.647Z,16.99
2022-07-30T23:16:00.512Z,17.00
2022-07-30T23:18:29.572Z,17.02
2022-07-30T23:21:00.383Z,17.04
2022-07-30T23:23:34.069Z,17.13
2022-07-30T23:26:06.779Z,17.14
2022-07-30T23:28:37.488Z,17.18
2022-07-30T23:31:06.314Z,17.17
2022-07-30T23:33:35.161Z,17.21
2022-07-30T23:36:06.153Z,17.23
2022-07-30T23:38:35.469Z,17.26
2022-07-30T23:41:06.239Z,17.24
2022-07-30T23:43:35.849Z,17.28
2022-07-30T23:46:05.285Z,17.30
2022-07-30T23:48:39.690Z,17.28
2022-07-30T23:51:08.477Z,17.23
2022-07-30T23:53:37.315Z,17.18
2022-07-30T23:56:06.092Z,17.15
2022-07-30T23:58:34.963Z,17.11
